sensor_id;sensor_type;location;lat;lon;timestamp;P1;durP1;ratioP1;P2;durP2;ratioP2
38615;SDS011;24370;51.986;4.666;2022-11-15T00:02:04;84.07;;;29.67;;
38615;SDS011;24370;51.986;4.666;2022-11-15T00:04:30;76.73;;;29.97;;
38615;SDS011;24370;51.986;4.666;2022-11-15T00:06:55;81.03;;;32.13;;
38615;SDS011;24370;51.986;4.666;2022-11-15T00:09:20;74.17;;;29.97;;
38615;SDS011;24370;51.986;4.666;2022-11-15T00:11:46;81.80;;;31.53;;
38615;SDS011;24370;51.986;4.666;2022-11-15T00:14:11;100.57;;;32.77;;
38615;SDS011;24370;51.986;4.666;2022-11-15T00:16:37;90.23;;;31.03;;
38615;SDS011;24370;51.986;4.666;2022-11-15T00:19:02;102.77;;;32.60;;
38615;SDS011;24370;51.986;4.666;2022-11-15T00:21:27;96.17;;;32.53;;
38615;SDS011;24370;51.986;4.666;2022-11-15T00:23:53;96.30;;;31.40;;
38615;SDS011;24370;51.986;4.666;2022-11-15T00:26:18;91.00;;;32.07;;
38615;SDS011;24370;51.986;4.666;2022-11-15T00:28:44;94.60;;;32.57;;
38615;SDS011;24370;51.986;4.666;2022-11-15T00:31:11;86.50;;;30.43;;
38615;SDS011;24370;51.986;4.666;2022-11-15T00:33:38;104.50;;;31.43;;
38615;SDS011;24370;51.986;4.666;2022-11-15T00:36:05;96.37;;;33.07;;
38615;SDS011;24370;51.986;4.666;2022-11-15T00:38:36;113.90;;;35.37;;
38615;SDS011;24370;51.986;4.666;2022-11-15T00:41:04;85.67;;;33.10;;
38615;SDS011;24370;51.986;4.666;2022-11-15T00:43:30;96.40;;;33.43;;
38615;SDS011;24370;51.986;4.666;2022-11-15T00:45:56;97.97;;;32.17;;
38615;SDS011;24370;51.986;4.666;2022-11-15T00:48:21;102.80;;;34.67;;
38615;SDS011;24370;51.986;4.666;2022-11-15T00:50:48;92.97;;;33.37;;
38615;SDS011;24370;51.986;4.666;2022-11-15T00:53:13;99.23;;;34.67;;
38615;SDS011;24370;51.986;4.666;2022-11-15T00:55:39;88.03;;;31.50;;
38615;SDS011;24370;51.986;4.666;2022-11-15T00:58:04;105.73;;;33.63;;
38615;SDS011;24370;51.986;4.666;2022-11-15T01:00:29;100.57;;;32.23;;
38615;SDS011;24370;51.986;4.666;2022-11-15T01:02:56;89.87;;;31.30;;
38615;SDS011;24370;51.986;4.666;2022-11-15T01:05:21;92.30;;;31.77;;
38615;SDS011;24370;51.986;4.666;2022-11-15T01:07:50;106.33;;;34.03;;
38615;SDS011;24370;51.986;4.666;2022-11-15T01:10:16;95.47;;;32.93;;
38615;SDS011;24370;51.986;4.666;2022-11-15T01:12:42;104.00;;;33.63;;
38615;SDS011;24370;51.986;4.666;2022-11-15T01:15:07;96.00;;;32.07;;
38615;SDS011;24370;51.986;4.666;2022-11-15T01:17:33;103.07;;;34.63;;
38615;SDS011;24370;51.986;4.666;2022-11-15T01:19:58;105.63;;;33.80;;
38615;SDS011;24370;51.986;4.666;2022-11-15T01:22:24;103.80;;;32.97;;
38615;SDS011;24370;51.986;4.666;2022-11-15T01:24:49;99.23;;;33.83;;
38615;SDS011;24370;51.986;4.666;2022-11-15T01:27:15;110.43;;;33.33;;
38615;SDS011;24370;51.986;4.666;2022-11-15T01:29:41;114.13;;;35.87;;
38615;SDS011;24370;51.986;4.666;2022-11-15T01:32:06;96.77;;;33.47;;
38615;SDS011;24370;51.986;4.666;2022-11-15T01:34:32;96.13;;;34.97;;
38615;SDS011;24370;51.986;4.666;2022-11-15T01:36:58;109.03;;;35.27;;
38615;SDS011;24370;51.986;4.666;2022-11-15T01:39:23;103.57;;;34.50;;
38615;SDS011;24370;51.986;4.666;2022-11-15T01:41:49;101.20;;;36.77;;
38615;SDS011;24370;51.986;4.666;2022-11-15T01:46:59;108.97;;;35.10;;
38615;SDS011;24370;51.986;4.666;2022-11-15T01:49:28;105.43;;;35.70;;
38615;SDS011;24370;51.986;4.666;2022-11-15T01:51:57;96.03;;;33.33;;
38615;SDS011;24370;51.986;4.666;2022-11-15T01:54:24;118.80;;;37.30;;
38615;SDS011;24370;51.986;4.666;2022-11-15T01:56:52;106.33;;;34.60;;
38615;SDS011;24370;51.986;4.666;2022-11-15T01:59:20;106.87;;;35.30;;
38615;SDS011;24370;51.986;4.666;2022-11-15T02:01:47;109.07;;;35.17;;
38615;SDS011;24370;51.986;4.666;2022-11-15T02:06:43;115.17;;;36.90;;
38615;SDS011;24370;51.986;4.666;2022-11-15T02:09:10;98.27;;;34.57;;
38615;SDS011;24370;51.986;4.666;2022-11-15T02:11:37;95.27;;;36.43;;
38615;SDS011;24370;51.986;4.666;2022-11-15T02:14:02;107.83;;;37.10;;
38615;SDS011;24370;51.986;4.666;2022-11-15T02:28:55;109.57;;;36.67;;
38615;SDS011;24370;51.986;4.666;2022-11-15T02:37:11;99.13;;;34.43;;
38615;SDS011;24370;51.986;4.666;2022-11-15T02:39:50;99.47;;;34.40;;
38615;SDS011;24370;51.986;4.666;2022-11-15T02:42:29;104.13;;;35.23;;
38615;SDS011;24370;51.986;4.666;2022-11-15T02:45:33;98.40;;;35.50;;
38615;SDS011;24370;51.986;4.666;2022-11-15T02:48:04;92.13;;;36.37;;
38615;SDS011;24370;51.986;4.666;2022-11-15T02:50:32;95.93;;;34.57;;
38615;SDS011;24370;51.986;4.666;2022-11-15T02:52:58;106.40;;;36.57;;
38615;SDS011;24370;51.986;4.666;2022-11-15T02:55:34;93.00;;;34.90;;
38615;SDS011;24370;51.986;4.666;2022-11-15T03:00:35;91.10;;;33.70;;
38615;SDS011;24370;51.986;4.666;2022-11-15T03:06:00;89.80;;;31.10;;
38615;SDS011;24370;51.986;4.666;2022-11-15T03:08:31;84.57;;;32.37;;
38615;SDS011;24370;51.986;4.666;2022-11-15T03:16:07;80.43;;;32.97;;
38615;SDS011;24370;51.986;4.666;2022-11-15T03:18:45;76.47;;;33.70;;
38615;SDS011;24370;51.986;4.666;2022-11-15T03:21:15;71.17;;;30.67;;
38615;SDS011;24370;51.986;4.666;2022-11-15T03:23:43;72.00;;;30.23;;
38615;SDS011;24370;51.986;4.666;2022-11-15T03:26:11;70.60;;;30.40;;
38615;SDS011;24370;51.986;4.666;2022-11-15T03:28:41;79.73;;;31.90;;
38615;SDS011;24370;51.986;4.666;2022-11-15T03:31:10;70.43;;;29.63;;
38615;SDS011;24370;51.986;4.666;2022-11-15T03:33:58;63.50;;;29.07;;
38615;SDS011;24370;51.986;4.666;2022-11-15T03:36:27;71.13;;;29.73;;
38615;SDS011;24370;51.986;4.666;2022-11-15T03:38:56;57.77;;;29.57;;
38615;SDS011;24370;51.986;4.666;2022-11-15T03:41:43;58.03;;;29.00;;
38615;SDS011;24370;51.986;4.666;2022-11-15T03:44:16;63.83;;;28.90;;
38615;SDS011;24370;51.986;4.666;2022-11-15T03:47:17;60.90;;;26.90;;
38615;SDS011;24370;51.986;4.666;2022-11-15T03:49:57;55.75;;;26.23;;
38615;SDS011;24370;51.986;4.666;2022-11-15T03:52:30;51.33;;;25.97;;
38615;SDS011;24370;51.986;4.666;2022-11-15T03:54:58;53.30;;;24.77;;
38615;SDS011;24370;51.986;4.666;2022-11-15T03:57:25;48.53;;;23.37;;
38615;SDS011;24370;51.986;4.666;2022-11-15T03:59:51;47.23;;;24.40;;
38615;SDS011;24370;51.986;4.666;2022-11-15T04:02:16;51.20;;;23.37;;
38615;SDS011;24370;51.986;4.666;2022-11-15T04:04:42;46.13;;;23.67;;
38615;SDS011;24370;51.986;4.666;2022-11-15T04:07:07;47.00;;;22.70;;
38615;SDS011;24370;51.986;4.666;2022-11-15T04:09:33;45.87;;;23.90;;
38615;SDS011;24370;51.986;4.666;2022-11-15T04:11:58;42.93;;;23.17;;
38615;SDS011;24370;51.986;4.666;2022-11-15T04:14:23;43.67;;;22.47;;
38615;SDS011;24370;51.986;4.666;2022-11-15T04:16:49;39.63;;;22.10;;
38615;SDS011;24370;51.986;4.666;2022-11-15T04:19:14;43.33;;;22.13;;
38615;SDS011;24370;51.986;4.666;2022-11-15T04:21:58;39.20;;;21.57;;
38615;SDS011;24370;51.986;4.666;2022-11-15T04:24:42;38.50;;;21.60;;
38615;SDS011;24370;51.986;4.666;2022-11-15T04:27:07;37.33;;;20.53;;
38615;SDS011;24370;51.986;4.666;2022-11-15T04:29:33;39.63;;;19.30;;
38615;SDS011;24370;51.986;4.666;2022-11-15T04:32:05;37.00;;;20.23;;
38615;SDS011;24370;51.986;4.666;2022-11-15T04:34:31;39.00;;;20.00;;
38615;SDS011;24370;51.986;4.666;2022-11-15T04:36:57;39.70;;;21.33;;
38615;SDS011;24370;51.986;4.666;2022-11-15T04:39:39;39.97;;;20.27;;
38615;SDS011;24370;51.986;4.666;2022-11-15T04:42:05;36.40;;;19.00;;
38615;SDS011;24370;51.986;4.666;2022-11-15T04:44:30;38.53;;;19.27;;
38615;SDS011;24370;51.986;4.666;2022-11-15T04:46:56;41.07;;;20.33;;
38615;SDS011;24370;51.986;4.666;2022-11-15T04:49:21;34.50;;;19.07;;
38615;SDS011;24370;51.986;4.666;2022-11-15T04:51:47;36.50;;;19.73;;
38615;SDS011;24370;51.986;4.666;2022-11-15T04:54:12;37.50;;;19.53;;
38615;SDS011;24370;51.986;4.666;2022-11-15T04:56:37;37.00;;;19.77;;
38615;SDS011;24370;51.986;4.666;2022-11-15T04:59:03;39.53;;;19.47;;
38615;SDS011;24370;51.986;4.666;2022-11-15T05:01:28;34.57;;;17.90;;
38615;SDS011;24370;51.986;4.666;2022-11-15T05:03:53;31.90;;;17.67;;
38615;SDS011;24370;51.986;4.666;2022-11-15T05:06:37;36.43;;;18.30;;
38615;SDS011;24370;51.986;4.666;2022-11-15T05:09:03;29.43;;;17.20;;
38615;SDS011;24370;51.986;4.666;2022-11-15T05:11:29;25.67;;;15.70;;
38615;SDS011;24370;51.986;4.666;2022-11-15T05:13:54;29.60;;;17.10;;
38615;SDS011;24370;51.986;4.666;2022-11-15T05:16:20;34.07;;;15.77;;
38615;SDS011;24370;51.986;4.666;2022-11-15T05:18:45;28.27;;;15.80;;
38615;SDS011;24370;51.986;4.666;2022-11-15T05:21:12;33.80;;;17.47;;
38615;SDS011;24370;51.986;4.666;2022-11-15T05:23:39;31.53;;;15.50;;
38615;SDS011;24370;51.986;4.666;2022-11-15T05:26:06;32.57;;;15.90;;
38615;SDS011;24370;51.986;4.666;2022-11-15T05:28:33;30.47;;;14.87;;
38615;SDS011;24370;51.986;4.666;2022-11-15T05:31:02;27.03;;;13.77;;
38615;SDS011;24370;51.986;4.666;2022-11-15T05:33:32;34.07;;;14.07;;
38615;SDS011;24370;51.986;4.666;2022-11-15T05:36:00;25.93;;;13.70;;
38615;SDS011;24370;51.986;4.666;2022-11-15T05:38:31;32.85;;;12.75;;
38615;SDS011;24370;51.986;4.666;2022-11-15T05:40:58;30.07;;;14.83;;
38615;SDS011;24370;51.986;4.666;2022-11-15T05:43:25;18.73;;;11.80;;
38615;SDS011;24370;51.986;4.666;2022-11-15T05:45:50;28.20;;;12.57;;
38615;SDS011;24370;51.986;4.666;2022-11-15T05:48:16;23.33;;;11.77;;
38615;SDS011;24370;51.986;4.666;2022-11-15T05:50:42;27.67;;;12.50;;
38615;SDS011;24370;51.986;4.666;2022-11-15T05:53:10;24.10;;;11.20;;
38615;SDS011;24370;51.986;4.666;2022-11-15T05:55:39;20.80;;;10.77;;
38615;SDS011;24370;51.986;4.666;2022-11-15T05:58:05;27.97;;;11.50;;
38615;SDS011;24370;51.986;4.666;2022-11-15T06:00:31;23.27;;;11.17;;
38615;SDS011;24370;51.986;4.666;2022-11-15T06:02:57;20.90;;;10.67;;
38615;SDS011;24370;51.986;4.666;2022-11-15T06:05:22;17.90;;;10.40;;
38615;SDS011;24370;51.986;4.666;2022-11-15T06:07:47;19.43;;;10.80;;
38615;SDS011;24370;51.986;4.666;2022-11-15T06:10:13;19.70;;;10.53;;
38615;SDS011;24370;51.986;4.666;2022-11-15T06:12:38;19.33;;;9.97;;
38615;SDS011;24370;51.986;4.666;2022-11-15T06:15:04;22.17;;;10.33;;
38615;SDS011;24370;51.986;4.666;2022-11-15T06:17:29;25.07;;;10.90;;
38615;SDS011;24370;51.986;4.666;2022-11-15T06:19:55;18.97;;;9.27;;
38615;SDS011;24370;51.986;4.666;2022-11-15T06:22:20;25.33;;;9.70;;
38615;SDS011;24370;51.986;4.666;2022-11-15T06:24:46;17.70;;;8.93;;
38615;SDS011;24370;51.986;4.666;2022-11-15T06:27:11;25.97;;;9.70;;
38615;SDS011;24370;51.986;4.666;2022-11-15T06:29:37;16.27;;;9.00;;
38615;SDS011;24370;51.986;4.666;2022-11-15T06:32:02;22.03;;;11.00;;
38615;SDS011;24370;51.986;4.666;2022-11-15T06:34:28;18.03;;;8.07;;
38615;SDS011;24370;51.986;4.666;2022-11-15T06:36:53;14.63;;;8.10;;
38615;SDS011;24370;51.986;4.666;2022-11-15T06:39:19;18.70;;;8.97;;
38615;SDS011;24370;51.986;4.666;2022-11-15T06:41:44;17.07;;;7.90;;
38615;SDS011;24370;51.986;4.666;2022-11-15T06:44:09;14.23;;;7.97;;
38615;SDS011;24370;51.986;4.666;2022-11-15T06:46:35;18.67;;;7.97;;
38615;SDS011;24370;51.986;4.666;2022-11-15T06:49:00;18.33;;;8.20;;
38615;SDS011;24370;51.986;4.666;2022-11-15T06:51:26;26.03;;;9.00;;
38615;SDS011;24370;51.986;4.666;2022-11-15T06:53:51;20.63;;;8.50;;
38615;SDS011;24370;51.986;4.666;2022-11-15T06:56:17;16.87;;;8.00;;
38615;SDS011;24370;51.986;4.666;2022-11-15T06:58:42;14.93;;;8.10;;
38615;SDS011;24370;51.986;4.666;2022-11-15T07:01:09;14.73;;;7.97;;
38615;SDS011;24370;51.986;4.666;2022-11-15T07:03:39;16.13;;;8.33;;
38615;SDS011;24370;51.986;4.666;2022-11-15T07:06:07;19.70;;;9.30;;
38615;SDS011;24370;51.986;4.666;2022-11-15T07:08:33;25.53;;;10.27;;
38615;SDS011;24370;51.986;4.666;2022-11-15T07:11:01;21.97;;;10.47;;
38615;SDS011;24370;51.986;4.666;2022-11-15T07:13:28;22.23;;;10.00;;
38615;SDS011;24370;51.986;4.666;2022-11-15T07:15:58;21.43;;;9.47;;
38615;SDS011;24370;51.986;4.666;2022-11-15T07:18:26;17.07;;;7.80;;
38615;SDS011;24370;51.986;4.666;2022-11-15T07:20:52;21.30;;;7.60;;
38615;SDS011;24370;51.986;4.666;2022-11-15T07:23:17;15.33;;;7.30;;
38615;SDS011;24370;51.986;4.666;2022-11-15T07:25:43;19.97;;;7.63;;
38615;SDS011;24370;51.986;4.666;2022-11-15T07:28:08;15.67;;;7.60;;
38615;SDS011;24370;51.986;4.666;2022-11-15T07:30:33;15.80;;;7.20;;
38615;SDS011;24370;51.986;4.666;2022-11-15T07:33:00;14.73;;;6.73;;
38615;SDS011;24370;51.986;4.666;2022-11-15T07:35:26;24.73;;;6.67;;
38615;SDS011;24370;51.986;4.666;2022-11-15T07:38:02;27.33;;;8.13;;
38615;SDS011;24370;51.986;4.666;2022-11-15T07:40:29;19.30;;;6.80;;
38615;SDS011;24370;51.986;4.666;2022-11-15T07:43:00;23.17;;;6.63;;
38615;SDS011;24370;51.986;4.666;2022-11-15T07:45:27;24.67;;;6.50;;
38615;SDS011;24370;51.986;4.666;2022-11-15T07:47:52;21.30;;;6.87;;
38615;SDS011;24370;51.986;4.666;2022-11-15T07:50:18;18.97;;;7.70;;
38615;SDS011;24370;51.986;4.666;2022-11-15T07:52:44;23.03;;;8.87;;
38615;SDS011;24370;51.986;4.666;2022-11-15T07:55:10;25.23;;;10.93;;
38615;SDS011;24370;51.986;4.666;2022-11-15T07:57:36;32.77;;;11.83;;
38615;SDS011;24370;51.986;4.666;2022-11-15T08:00:02;29.60;;;12.17;;
38615;SDS011;24370;51.986;4.666;2022-11-15T08:02:29;17.77;;;10.67;;
38615;SDS011;24370;51.986;4.666;2022-11-15T08:04:54;19.70;;;11.07;;
38615;SDS011;24370;51.986;4.666;2022-11-15T08:07:20;21.77;;;11.33;;
38615;SDS011;24370;51.986;4.666;2022-11-15T08:09:45;22.80;;;11.90;;
38615;SDS011;24370;51.986;4.666;2022-11-15T08:12:10;23.10;;;11.67;;
38615;SDS011;24370;51.986;4.666;2022-11-15T08:14:36;22.97;;;11.90;;
38615;SDS011;24370;51.986;4.666;2022-11-15T08:17:01;17.20;;;11.17;;
38615;SDS011;24370;51.986;4.666;2022-11-15T08:19:27;27.57;;;11.17;;
38615;SDS011;24370;51.986;4.666;2022-11-15T08:21:52;21.47;;;11.00;;
38615;SDS011;24370;51.986;4.666;2022-11-15T08:24:17;20.00;;;11.60;;
38615;SDS011;24370;51.986;4.666;2022-11-15T08:26:43;25.07;;;11.90;;
38615;SDS011;24370;51.986;4.666;2022-11-15T08:29:08;19.27;;;10.23;;
38615;SDS011;24370;51.986;4.666;2022-11-15T08:31:34;27.10;;;12.17;;
38615;SDS011;24370;51.986;4.666;2022-11-15T08:34:01;23.97;;;11.03;;
38615;SDS011;24370;51.986;4.666;2022-11-15T08:36:27;19.53;;;11.10;;
38615;SDS011;24370;51.986;4.666;2022-11-15T08:38:53;18.40;;;10.03;;
38615;SDS011;24370;51.986;4.666;2022-11-15T08:41:30;20.17;;;10.70;;
38615;SDS011;24370;51.986;4.666;2022-11-15T08:43:57;22.13;;;9.93;;
38615;SDS011;24370;51.986;4.666;2022-11-15T08:46:22;21.67;;;9.17;;
38615;SDS011;24370;51.986;4.666;2022-11-15T08:48:48;21.73;;;9.77;;
38615;SDS011;24370;51.986;4.666;2022-11-15T08:51:13;18.97;;;9.40;;
38615;SDS011;24370;51.986;4.666;2022-11-15T08:53:39;16.70;;;9.40;;
38615;SDS011;24370;51.986;4.666;2022-11-15T08:56:12;17.77;;;9.27;;
38615;SDS011;24370;51.986;4.666;2022-11-15T08:58:39;19.63;;;9.17;;
38615;SDS011;24370;51.986;4.666;2022-11-15T09:01:05;15.30;;;9.03;;
38615;SDS011;24370;51.986;4.666;2022-11-15T09:03:30;15.90;;;8.80;;
38615;SDS011;24370;51.986;4.666;2022-11-15T09:05:56;35.57;;;9.13;;
38615;SDS011;24370;51.986;4.666;2022-11-15T09:08:23;23.37;;;8.27;;
38615;SDS011;24370;51.986;4.666;2022-11-15T09:10:50;16.07;;;8.27;;
38615;SDS011;24370;51.986;4.666;2022-11-15T09:13:16;13.40;;;7.23;;
38615;SDS011;24370;51.986;4.666;2022-11-15T09:15:42;18.70;;;8.00;;
38615;SDS011;24370;51.986;4.666;2022-11-15T09:18:07;11.47;;;7.33;;
38615;SDS011;24370;51.986;4.666;2022-11-15T09:20:32;16.23;;;8.13;;
38615;SDS011;24370;51.986;4.666;2022-11-15T09:23:01;12.23;;;7.97;;
38615;SDS011;24370;51.986;4.666;2022-11-15T09:25:27;12.33;;;7.90;;
38615;SDS011;24370;51.986;4.666;2022-11-15T09:27:53;12.47;;;6.90;;
38615;SDS011;24370;51.986;4.666;2022-11-15T09:30:19;18.77;;;7.93;;
38615;SDS011;24370;51.986;4.666;2022-11-15T09:32:44;14.07;;;8.23;;
38615;SDS011;24370;51.986;4.666;2022-11-15T09:35:09;11.40;;;6.97;;
38615;SDS011;24370;51.986;4.666;2022-11-15T09:37:35;14.23;;;7.50;;
38615;SDS011;24370;51.986;4.666;2022-11-15T09:40:00;14.83;;;7.17;;
38615;SDS011;24370;51.986;4.666;2022-11-15T09:45:28;13.23;;;5.70;;
38615;SDS011;24370;51.986;4.666;2022-11-15T09:50:50;10.27;;;4.33;;
38615;SDS011;24370;51.986;4.666;2022-11-15T09:53:29;9.30;;;3.93;;
38615;SDS011;24370;51.986;4.666;2022-11-15T09:56:01;8.77;;;4.03;;
38615;SDS011;24370;51.986;4.666;2022-11-15T09:58:36;7.25;;;3.55;;
38615;SDS011;24370;51.986;4.666;2022-11-15T10:01:23;8.38;;;3.60;;
38615;SDS011;24370;51.986;4.666;2022-11-15T10:04:16;14.33;;;4.20;;
38615;SDS011;24370;51.986;4.666;2022-11-15T10:06:46;7.97;;;3.87;;
38615;SDS011;24370;51.986;4.666;2022-11-15T10:09:19;10.95;;;3.53;;
38615;SDS011;24370;51.986;4.666;2022-11-15T10:11:56;8.05;;;3.90;;
38615;SDS011;24370;51.986;4.666;2022-11-15T10:14:23;7.45;;;3.60;;
38615;SDS011;24370;51.986;4.666;2022-11-15T10:20:24;5.85;;;3.08;;
38615;SDS011;24370;51.986;4.666;2022-11-15T10:23:00;7.15;;;3.08;;
38615;SDS011;24370;51.986;4.666;2022-11-15T10:25:30;11.00;;;3.60;;
38615;SDS011;24370;51.986;4.666;2022-11-15T10:28:03;11.32;;;3.20;;
38615;SDS011;24370;51.986;4.666;2022-11-15T10:30:41;18.27;;;3.60;;
38615;SDS011;24370;51.986;4.666;2022-11-15T10:46:31;10.18;;;2.88;;
38615;SDS011;24370;51.986;4.666;2022-11-15T10:51:39;7.38;;;2.20;;
38615;SDS011;24370;51.986;4.666;2022-11-15T10:54:09;6.95;;;2.00;;
38615;SDS011;24370;51.986;4.666;2022-11-15T10:56:38;6.30;;;2.40;;
38615;SDS011;24370;51.986;4.666;2022-11-15T10:59:09;9.55;;;2.47;;
38615;SDS011;24370;51.986;4.666;2022-11-15T11:01:47;7.20;;;2.40;;
38615;SDS011;24370;51.986;4.666;2022-11-15T11:04:13;9.80;;;2.60;;
38615;SDS011;24370;51.986;4.666;2022-11-15T11:06:46;5.97;;;2.25;;
38615;SDS011;24370;51.986;4.666;2022-11-15T11:09:35;6.20;;;2.00;;
38615;SDS011;24370;51.986;4.666;2022-11-15T11:12:04;6.78;;;2.55;;
38615;SDS011;24370;51.986;4.666;2022-11-15T11:14:32;10.18;;;2.30;;
38615;SDS011;24370;51.986;4.666;2022-11-15T11:17:06;5.55;;;2.42;;
38615;SDS011;24370;51.986;4.666;2022-11-15T11:20:16;10.02;;;2.67;;
38615;SDS011;24370;51.986;4.666;2022-11-15T11:25:47;8.73;;;2.60;;
38615;SDS011;24370;51.986;4.666;2022-11-15T11:34:29;8.57;;;2.22;;
38615;SDS011;24370;51.986;4.666;2022-11-15T11:45:12;8.25;;;1.95;;
38615;SDS011;24370;51.986;4.666;2022-11-15T11:47:43;6.95;;;1.90;;
38615;SDS011;24370;51.986;4.666;2022-11-15T11:50:14;4.32;;;1.92;;
38615;SDS011;24370;51.986;4.666;2022-11-15T11:55:40;9.02;;;1.58;;
38615;SDS011;24370;51.986;4.666;2022-11-15T12:00:55;8.60;;;1.77;;
38615;SDS011;24370;51.986;4.666;2022-11-15T12:03:39;9.93;;;1.90;;
38615;SDS011;24370;51.986;4.666;2022-11-15T12:14:11;7.15;;;1.35;;
38615;SDS011;24370;51.986;4.666;2022-11-15T12:16:52;9.88;;;1.83;;
38615;SDS011;24370;51.986;4.666;2022-11-15T12:19:18;8.00;;;1.50;;
38615;SDS011;24370;51.986;4.666;2022-11-15T12:21:48;5.70;;;1.58;;
38615;SDS011;24370;51.986;4.666;2022-11-15T12:24:42;8.32;;;1.60;;
38615;SDS011;24370;51.986;4.666;2022-11-15T12:32:49;7.28;;;1.73;;
38615;SDS011;24370;51.986;4.666;2022-11-15T12:37:52;9.32;;;1.42;;
38615;SDS011;24370;51.986;4.666;2022-11-15T12:43:01;3.63;;;1.35;;
38615;SDS011;24370;51.986;4.666;2022-11-15T12:45:42;7.55;;;1.02;;
38615;SDS011;24370;51.986;4.666;2022-11-15T12:56:35;8.02;;;1.50;;
38615;SDS011;24370;51.986;4.666;2022-11-15T13:01:59;7.90;;;1.27;;
38615;SDS011;24370;51.986;4.666;2022-11-15T13:06:51;5.78;;;1.58;;
38615;SDS011;24370;51.986;4.666;2022-11-15T13:09:52;4.70;;;1.23;;
38615;SDS011;24370;51.986;4.666;2022-11-15T13:14:51;9.60;;;1.30;;
38615;SDS011;24370;51.986;4.666;2022-11-15T13:19:48;9.00;;;1.58;;
38615;SDS011;24370;51.986;4.666;2022-11-15T13:22:20;5.32;;;1.10;;
38615;SDS011;24370;51.986;4.666;2022-11-15T13:25:04;6.40;;;1.30;;
38615;SDS011;24370;51.986;4.666;2022-11-15T13:27:59;7.78;;;1.20;;
38615;SDS011;24370;51.986;4.666;2022-11-15T13:30:29;11.48;;;1.45;;
38615;SDS011;24370;51.986;4.666;2022-11-15T13:32:56;5.45;;;1.35;;
38615;SDS011;24370;51.986;4.666;2022-11-15T13:35:27;4.82;;;1.70;;
38615;SDS011;24370;51.986;4.666;2022-11-15T13:37:55;6.20;;;1.10;;
38615;SDS011;24370;51.986;4.666;2022-11-15T13:40:29;4.35;;;1.10;;
38615;SDS011;24370;51.986;4.666;2022-11-15T13:43:02;1.42;;;0.90;;
38615;SDS011;24370;51.986;4.666;2022-11-15T13:48:33;8.23;;;0.90;;
38615;SDS011;24370;51.986;4.666;2022-11-15T13:50:59;3.83;;;1.15;;
38615;SDS011;24370;51.986;4.666;2022-11-15T13:53:28;5.95;;;1.20;;
38615;SDS011;24370;51.986;4.666;2022-11-15T13:55:55;8.20;;;1.48;;
38615;SDS011;24370;51.986;4.666;2022-11-15T13:58:23;5.15;;;1.20;;
38615;SDS011;24370;51.986;4.666;2022-11-15T14:00:48;5.22;;;1.27;;
38615;SDS011;24370;51.986;4.666;2022-11-15T14:03:31;13.13;;;1.55;;
38615;SDS011;24370;51.986;4.666;2022-11-15T14:06:06;5.20;;;1.17;;
38615;SDS011;24370;51.986;4.666;2022-11-15T14:08:37;4.50;;;0.90;;
38615;SDS011;24370;51.986;4.666;2022-11-15T14:11:09;4.63;;;1.10;;
38615;SDS011;24370;51.986;4.666;2022-11-15T14:13:38;4.53;;;0.85;;
38615;SDS011;24370;51.986;4.666;2022-11-15T14:16:14;4.85;;;1.17;;
38615;SDS011;24370;51.986;4.666;2022-11-15T14:18:45;9.80;;;1.92;;
38615;SDS011;24370;51.986;4.666;2022-11-15T14:21:11;6.63;;;1.20;;
38615;SDS011;24370;51.986;4.666;2022-11-15T14:23:37;4.47;;;1.15;;
38615;SDS011;24370;51.986;4.666;2022-11-15T14:26:02;3.50;;;1.08;;
38615;SDS011;24370;51.986;4.666;2022-11-15T14:28:29;7.25;;;1.30;;
38615;SDS011;24370;51.986;4.666;2022-11-15T14:31:01;4.40;;;0.93;;
38615;SDS011;24370;51.986;4.666;2022-11-15T14:33:35;8.77;;;1.67;;
38615;SDS011;24370;51.986;4.666;2022-11-15T14:36:23;2.03;;;0.85;;
38615;SDS011;24370;51.986;4.666;2022-11-15T14:38:47;4.50;;;1.75;;
38615;SDS011;24370;51.986;4.666;2022-11-15T14:41:17;6.32;;;1.35;;
38615;SDS011;24370;51.986;4.666;2022-11-15T14:43:47;5.97;;;1.83;;
38615;SDS011;24370;51.986;4.666;2022-11-15T14:46:13;4.90;;;1.30;;
38615;SDS011;24370;51.986;4.666;2022-11-15T14:48:39;4.45;;;1.20;;
38615;SDS011;24370;51.986;4.666;2022-11-15T14:51:09;3.05;;;1.20;;
38615;SDS011;24370;51.986;4.666;2022-11-15T14:53:39;4.57;;;0.73;;
38615;SDS011;24370;51.986;4.666;2022-11-15T14:56:04;5.63;;;1.10;;
38615;SDS011;24370;51.986;4.666;2022-11-15T14:58:30;3.15;;;0.93;;
38615;SDS011;24370;51.986;4.666;2022-11-15T15:00:55;3.78;;;1.08;;
38615;SDS011;24370;51.986;4.666;2022-11-15T15:03:21;8.00;;;2.55;;
38615;SDS011;24370;51.986;4.666;2022-11-15T15:05:46;3.50;;;2.50;;
38615;SDS011;24370;51.986;4.666;2022-11-15T15:08:12;4.20;;;1.88;;
38615;SDS011;24370;51.986;4.666;2022-11-15T15:10:38;5.28;;;1.17;;
38615;SDS011;24370;51.986;4.666;2022-11-15T15:13:08;2.42;;;0.95;;
38615;SDS011;24370;51.986;4.666;2022-11-15T15:15:39;5.55;;;1.30;;
38615;SDS011;24370;51.986;4.666;2022-11-15T15:18:05;3.95;;;1.15;;
38615;SDS011;24370;51.986;4.666;2022-11-15T15:20:33;9.20;;;1.60;;
38615;SDS011;24370;51.986;4.666;2022-11-15T15:23:00;4.63;;;1.88;;
38615;SDS011;24370;51.986;4.666;2022-11-15T15:25:32;3.63;;;1.08;;
38615;SDS011;24370;51.986;4.666;2022-11-15T15:27:59;5.18;;;1.10;;
38615;SDS011;24370;51.986;4.666;2022-11-15T15:30:26;3.33;;;1.00;;
38615;SDS011;24370;51.986;4.666;2022-11-15T15:32:53;6.07;;;1.40;;
38615;SDS011;24370;51.986;4.666;2022-11-15T15:35:19;8.63;;;4.30;;
38615;SDS011;24370;51.986;4.666;2022-11-15T15:37:46;6.35;;;3.05;;
38615;SDS011;24370;51.986;4.666;2022-11-15T15:42:46;4.28;;;1.67;;
38615;SDS011;24370;51.986;4.666;2022-11-15T15:45:12;4.88;;;1.10;;
38615;SDS011;24370;51.986;4.666;2022-11-15T15:47:38;7.15;;;3.13;;
38615;SDS011;24370;51.986;4.666;2022-11-15T15:50:38;8.93;;;4.45;;
38615;SDS011;24370;51.986;4.666;2022-11-15T15:53:00;9.50;;;5.70;;
38615;SDS011;24370;51.986;4.666;2022-11-15T15:55:27;4.38;;;2.50;;
38615;SDS011;24370;51.986;4.666;2022-11-15T15:57:53;6.03;;;2.78;;
38615;SDS011;24370;51.986;4.666;2022-11-15T16:00:19;5.43;;;3.53;;
38615;SDS011;24370;51.986;4.666;2022-11-15T16:02:46;6.23;;;3.13;;
38615;SDS011;24370;51.986;4.666;2022-11-15T16:05:11;8.60;;;3.47;;
38615;SDS011;24370;51.986;4.666;2022-11-15T16:07:38;2.63;;;1.30;;
38615;SDS011;24370;51.986;4.666;2022-11-15T16:12:45;3.80;;;1.70;;
38615;SDS011;24370;51.986;4.666;2022-11-15T16:15:10;10.17;;;2.03;;
38615;SDS011;24370;51.986;4.666;2022-11-15T16:17:40;7.37;;;2.10;;
38615;SDS011;24370;51.986;4.666;2022-11-15T16:20:15;4.70;;;1.80;;
38615;SDS011;24370;51.986;4.666;2022-11-15T16:23:05;5.50;;;2.20;;
38615;SDS011;24370;51.986;4.666;2022-11-15T16:25:42;9.13;;;2.63;;
38615;SDS011;24370;51.986;4.666;2022-11-15T16:28:19;5.80;;;3.15;;
38615;SDS011;24370;51.986;4.666;2022-11-15T16:30:47;6.10;;;2.50;;
38615;SDS011;24370;51.986;4.666;2022-11-15T16:33:12;7.07;;;1.90;;
38615;SDS011;24370;51.986;4.666;2022-11-15T16:35:38;9.03;;;2.50;;
38615;SDS011;24370;51.986;4.666;2022-11-15T16:38:03;6.87;;;2.77;;
38615;SDS011;24370;51.986;4.666;2022-11-15T16:40:29;7.13;;;1.93;;
38615;SDS011;24370;51.986;4.666;2022-11-15T16:42:59;10.57;;;2.47;;
38615;SDS011;24370;51.986;4.666;2022-11-15T16:45:27;6.67;;;2.00;;
38615;SDS011;24370;51.986;4.666;2022-11-15T16:47:55;6.23;;;2.57;;
38615;SDS011;24370;51.986;4.666;2022-11-15T16:50:25;4.13;;;2.50;;